Terminal Aerodrome Forecast
Issued by NWS Houston/Galveston, TX

Home | Current Version | Previous Version | Text Only | Print | Product List | Glossary On
Versions: 1 2 3 4 5 6 7 8 9 10 11 12 13 14 15 16 17 18 19 20 21 22 23 24 25 26 27 28 29 30 31 32 33 34 35 36
688
FTUS44 KHGX 232350 RRA
TAFCLL
TAF
KCLL 232350Z 2400/2424 16014G26KT P6SM SKC
     FM240200 16010KT P6SM SCT015
     FM240900 17010KT 4SM BR BKN012
     FM241400 23005KT P6SM SCT012
     FM241900 31011G18KT P6SM SKC=

USA.gov is the U.S. government's official web portal to all federal, state and local government web resources and services.